Time;durP1;ratioP1;P1;durP2;ratioP2;P2;SDS_P1;SDS_P2;PMS_P1;PMS_P2;Temp;Humidity;BMP_temperature;BMP_pressure;BME280_temperature;BME280_humidity;BME280_pressure;Samples;Min_cycle;Max_cycle;Signal;HPM_P1;HPM_P2
2022/12/04 00:02:23;;;;;;;38.40;19.47;;;;;;;5.15;92.74;95733.09;4990319;28;20424;-75
2022/12/04 00:04:49;;;;;;;35.67;17.23;;;;;;;5.12;92.82;95736.00;4993089;28;20192;-75
2022/12/04 00:07:14;;;;;;;41.83;19.10;;;;;;;5.11;92.18;95736.97;4992989;28;20235;-75
2022/12/04 00:09:39;;;;;;;43.13;21.50;;;;;;;4.97;92.43;95720.09;4993205;28;20423;-76
2022/12/04 00:12:05;;;;;;;47.60;22.97;;;;;;;4.99;93.15;95733.81;4989326;28;20435;-75
2022/12/04 00:14:31;;;;;;;46.30;21.73;;;;;;;5.00;93.04;95743.28;4992038;28;20659;-76
2022/12/04 00:16:56;;;;;;;46.47;20.70;;;;;;;4.91;92.99;95734.59;5003212;28;20287;-76
2022/12/04 00:19:21;;;;;;;37.60;18.97;;;;;;;4.91;92.88;95734.59;4993179;28;20191;-76
2022/12/04 00:21:49;;;;;;;41.00;19.63;;;;;;;4.65;93.14;95704.28;4993196;28;20181;-76
2022/12/04 00:24:14;;;;;;;40.50;18.30;;;;;;;4.77;92.78;95721.28;4992956;28;20181;-76
2022/12/04 00:26:40;;;;;;;54.07;25.00;;;;;;;4.87;93.19;95748.91;4991280;28;20477;-76
2022/12/04 00:29:05;;;;;;;39.83;20.53;;;;;;;4.96;93.54;95746.34;4991698;28;20181;-76
2022/12/04 00:31:31;;;;;;;41.30;19.87;;;;;;;4.92;93.41;95744.06;4991663;28;20184;-76
2022/12/04 00:33:57;;;;;;;45.60;20.43;;;;;;;4.14;92.55;95628.53;4993270;28;20208;-76
2022/12/04 00:36:24;;;;;;;43.37;19.93;;;;;;;4.74;92.33;95725.03;4975587;28;20209;-76
2022/12/04 00:38:50;;;;;;;49.40;24.90;;;;;;;4.75;92.74;95729.28;4986265;28;20427;-76
2022/12/04 00:41:18;;;;;;;52.07;23.93;;;;;;;4.57;93.13;95712.88;4975065;28;20184;-76
2022/12/04 00:43:47;;;;;;;54.60;23.77;;;;;;;4.77;92.70;95737.75;4991381;28;20621;-76
2022/12/04 00:46:14;;;;;;;46.00;22.60;;;;;;;4.74;92.66;95737.25;4992528;28;20177;-75
2022/12/04 00:48:40;;;;;;;51.83;23.13;;;;;;;4.73;92.46;95738.22;4992502;28;20652;-76
2022/12/04 00:51:08;;;;;;;54.93;23.13;;;;;;;4.74;92.39;95737.25;4992306;28;20181;-76
2022/12/04 00:53:34;;;;;;;44.27;20.43;;;;;;;4.47;92.55;95714.75;5006950;28;20189;-76
2022/12/04 00:56:05;;;;;;;47.53;21.95;;;;;;;4.49;92.96;95731.06;4991945;28;20450;-76
2022/12/04 00:58:31;;;;;;;54.27;23.90;;;;;;;4.47;93.18;95730.38;4992116;28;20192;-75
2022/12/04 01:01:11;;;;;;;54.10;24.53;;;;;;;4.51;93.53;95758.59;4992171;28;20180;-76
2022/12/04 01:03:37;;;;;;;58.10;22.60;;;;;;;4.35;92.89;95727.19;4975055;28;20192;-76
2022/12/04 01:06:03;;;;;;;46.00;22.00;;;;;;;4.44;93.09;95739.31;4992590;28;20177;-76
2022/12/04 01:08:29;;;;;;;47.77;24.40;;;;;;;4.53;92.81;95748.03;4974937;28;20290;-76
2022/12/04 01:10:56;;;;;;;49.80;21.37;;;;;;;4.29;92.44;95713.94;4992164;28;20593;-76
2022/12/04 01:13:22;;;;;;;42.13;22.17;;;;;;;4.52;92.38;95756.81;4992329;28;20185;-76
2022/12/04 01:15:48;;;;;;;45.00;22.73;;;;;;;4.47;92.91;95759.06;4991965;28;20724;-76
2022/12/04 01:18:14;;;;;;;48.47;23.40;;;;;;;4.39;92.79;95732.94;4991976;28;20267;-76
2022/12/04 01:20:45;;;;;;;57.17;24.00;;;;;;;4.41;92.41;95733.59;4991939;28;20176;-76
2022/12/04 01:23:10;;;;;;;48.20;24.30;;;;;;;4.27;92.73;95713.28;4992131;28;20958;-76
2022/12/04 01:25:35;;;;;;;50.30;25.17;;;;;;;4.22;92.91;95713.75;4992011;28;20200;-76
2022/12/04 01:28:01;;;;;;;54.00;25.60;;;;;;;4.34;92.59;95728.16;4974439;28;20169;-76
2022/12/04 01:30:26;;;;;;;53.37;24.10;;;;;;;4.39;93.13;95733.75;4974464;28;20588;-76
2022/12/04 01:32:52;;;;;;;47.97;22.57;;;;;;;4.46;93.53;95741.78;4991659;28;20679;-76
2022/12/04 01:35:17;;;;;;;49.13;21.70;;;;;;;4.47;93.91;95743.41;4991815;28;20177;-76
2022/12/04 01:37:42;;;;;;;54.73;23.90;;;;;;;4.48;94.39;95745.06;4991871;28;20205;-76
2022/12/04 01:40:15;;;;;;;54.60;27.60;;;;;;;4.44;94.64;95748.91;4990594;28;20919;-76
2022/12/04 01:42:41;;;;;;;48.00;22.73;;;;;;;4.34;93.94;95717.72;4991545;28;20216;-76
2022/12/04 01:45:27;;;;;;;49.97;23.33;;;;;;;4.43;93.66;95747.28;4990440;28;20282;-76
2022/12/04 01:47:57;;;;;;;44.47;23.17;;;;;;;4.42;93.60;95736.03;4991585;28;20631;-76
2022/12/04 01:50:23;;;;;;;46.97;22.87;;;;;;;4.27;92.94;95715.88;4991561;28;20652;-76
2022/12/04 01:52:50;;;;;;;44.97;22.97;;;;;;;4.10;93.33;95694.91;4991431;28;20185;-76
2022/12/04 01:55:16;;;;;;;47.37;23.10;;;;;;;4.21;93.31;95714.72;4991688;28;20177;-76
2022/12/04 01:57:41;;;;;;;47.37;22.60;;;;;;;4.08;93.19;95699.44;4991674;28;20207;-76
2022/12/04 02:00:10;;;;;;;55.63;23.83;;;;;;;4.18;94.28;95718.41;4995778;28;20180;-76
2022/12/04 02:02:39;;;;;;;44.60;21.80;;;;;;;4.22;94.43;95731.16;4995377;28;20212;-76
2022/12/04 02:05:09;;;;;;;48.87;22.37;;;;;;;4.30;93.86;95731.22;4995464;28;20255;-76
2022/12/04 02:07:36;;;;;;;47.73;23.57;;;;;;;4.33;93.35;95721.31;4995627;28;20229;-76
2022/12/04 02:10:07;;;;;;;48.10;22.97;;;;;;;4.33;93.06;95731.72;4995647;28;20648;-76
2022/12/04 02:12:44;;;;;;;49.03;23.40;;;;;;;4.17;93.44;95715.97;4995266;28;20173;-76
2022/12/04 02:15:27;;;;;;;50.13;23.80;;;;;;;3.98;93.41;95682.28;4995411;28;20168;-77
2022/12/04 02:18:13;;;;;;;47.07;23.63;;;;;;;4.04;93.37;95681.69;4995237;28;20208;-77
2022/12/04 02:21:17;;;;;;;47.57;21.57;;;;;;;3.92;93.43;95643.78;4977692;28;20234;-77
2022/12/04 02:23:57;;;;;;;40.40;21.87;;;;;;;4.37;93.17;95719.22;4916158;29;20203;-76
2022/12/04 02:26:38;;;;;;;51.97;23.90;;;;;;;4.01;93.55;95667.16;4981873;28;20727;-76
2022/12/04 02:29:38;;;;;;;44.83;23.27;;;;;;;4.39;93.60;95712.09;4994990;28;20181;-76
2022/12/04 02:32:09;;;;;;;46.53;22.87;;;;;;;4.20;93.39;95686.19;4987671;28;20200;-76
2022/12/04 02:34:52;;;;;;;45.73;23.40;;;;;;;4.14;93.33;95682.41;4995204;28;20259;-76
2022/12/04 02:37:29;;;;;;;39.63;20.00;;;;;;;4.35;93.96;95716.75;4993684;28;20204;-77
2022/12/04 02:40:08;;;;;;;36.13;19.37;;;;;;;4.29;93.66;95711.34;4994911;28;20176;-76
2022/12/04 02:42:40;;;;;;;37.27;18.93;;;;;;;4.29;93.58;95713.94;4994901;28;20699;-76
2022/12/04 02:45:13;;;;;;;36.63;19.90;;;;;;;4.29;93.72;95719.16;4985639;28;20165;-76
2022/12/04 02:47:41;;;;;;;40.97;18.17;;;;;;;4.35;93.60;95714.16;4976980;28;20196;-76
2022/12/04 02:50:12;;;;;;;35.63;16.70;;;;;;;4.19;93.77;95685.38;4994568;28;20262;-76
2022/12/04 02:52:43;;;;;;;31.47;17.27;;;;;;;4.34;94.45;95703.88;4994444;28;20203;-77
2022/12/04 02:55:21;;;;;;;39.37;17.07;;;;;;;4.31;94.97;95701.59;4994737;28;20181;-76
2022/12/04 02:57:54;;;;;;;34.03;16.47;;;;;;;4.35;94.48;95700.31;4994658;28;20223;-76
2022/12/04 03:00:21;;;;;;;31.27;14.97;;;;;;;4.31;94.31;95699.81;4994590;28;20181;-76
2022/12/04 03:03:01;;;;;;;28.67;15.93;;;;;;;4.40;94.21;95718.94;4994655;28;20177;-76
2022/12/04 03:05:37;;;;;;;29.70;14.77;;;;;;;4.43;93.96;95719.44;4994874;28;20662;-76
2022/12/04 03:08:14;;;;;;;29.80;14.67;;;;;;;4.42;94.23;95717.78;4994704;28;20306;-76
2022/12/04 03:10:48;;;;;;;31.33;13.37;;;;;;;4.32;93.88;95680.59;4994034;28;20556;-76
2022/12/04 03:13:19;;;;;;;24.97;13.63;;;;;;;4.38;93.61;95689.59;4994932;28;20185;-76
2022/12/04 03:16:00;;;;;;;25.30;12.93;;;;;;;4.42;93.43;95703.94;4976913;28;20659;-76
2022/12/04 03:18:30;;;;;;;33.53;14.87;;;;;;;4.39;93.31;95699.06;4994342;28;20185;-76
2022/12/04 03:21:07;;;;;;;26.57;14.93;;;;;;;4.41;93.35;95694.50;4994154;28;20169;-76
2022/12/04 03:23:45;;;;;;;31.67;15.70;;;;;;;4.28;93.13;95686.25;4993941;28;20264;-76
2022/12/04 03:26:48;;;;;;;48.00;20.90;;;;;;;4.08;93.28;95660.38;4994028;28;20172;-76
2022/12/04 03:29:19;;;;;;;39.28;19.10;;;;;;;4.09;93.83;95664.63;4949107;28;20494;-78
2022/12/04 03:31:50;;;;;;;43.50;21.33;;;;;;;4.32;93.89;95698.84;4993935;28;20656;-76
2022/12/04 03:34:26;;;;;;;37.50;18.37;;;;;;;4.20;93.71;95675.78;4993679;28;20246;-76
2022/12/04 03:36:57;;;;;;;33.33;16.33;;;;;;;4.36;93.84;95692.34;4994055;28;20227;-76
2022/12/04 03:39:37;;;;;;;42.90;16.20;;;;;;;4.36;93.71;95699.34;4993950;28;20181;-76
2022/12/04 03:42:17;;;;;;;28.80;14.73;;;;;;;4.32;93.84;95701.44;4993808;28;20314;-76
2022/12/04 03:44:42;;;;;;;36.07;16.27;;;;;;;4.04;94.25;95653.84;4992571;28;20702;-76
2022/12/04 03:47:13;;;;;;;31.73;13.70;;;;;;;4.25;94.20;95691.75;4994300;28;20177;-76
2022/12/04 03:50:01;;;;;;;32.67;14.53;;;;;;;4.11;94.23;95669.69;4994015;28;20625;-76
2022/12/04 03:52:49;;;;;;;37.83;15.67;;;;;;;4.28;93.83;95692.28;4993882;28;20177;-77
2022/12/04 03:55:27;;;;;;;41.40;23.53;;;;;;;4.31;93.54;95688.56;4993620;28;20196;-77
2022/12/04 03:57:58;;;;;;;40.23;19.73;;;;;;;4.29;93.71;95688.72;4993796;28;20280;-77
2022/12/04 04:00:24;;;;;;;37.07;18.50;;;;;;;4.06;94.03;95661.50;4992917;28;20208;-77
2022/12/04 04:02:59;;;;;;;36.97;20.47;;;;;;;4.30;94.76;95692.13;4993276;28;20631;-77
2022/12/04 04:05:27;;;;;;;37.03;18.13;;;;;;;4.35;94.58;95695.09;4993552;28;20235;-77
2022/12/04 04:08:24;;;;;;;45.83;18.50;;;;;;;4.25;94.11;95670.91;4993257;28;20824;-77
2022/12/04 04:10:46;;;;;;;35.23;17.87;;;;;;;4.33;94.25;95689.22;4993461;28;20264;-77
2022/12/04 04:24:56;;;;;;;27.13;14.60;;;;;;;4.66;96.14;95685.88;4993392;28;20196;-76
2022/12/04 04:27:21;;;;;;;16.63;10.25;;;;;;;4.74;95.24;95692.94;4971834;28;20912;-76
2022/12/04 04:29:47;;;;;;;18.97;10.33;;;;;;;4.77;95.28;95688.19;4992885;28;20211;-76
2022/12/04 04:32:18;;;;;;;18.63;10.67;;;;;;;4.78;94.91;95691.63;4993100;28;20553;-76
2022/12/04 04:35:08;;;;;;;11.67;6.37;;;;;;;4.96;95.20;95697.59;4992896;28;20181;-75
2022/12/04 04:37:33;;;;;;;17.23;8.38;;;;;;;5.12;96.40;95694.25;4991240;28;20947;-76
2022/12/04 04:40:20;;;;;;;13.47;7.17;;;;;;;4.94;96.92;95674.28;4992782;28;20187;-77
2022/12/04 04:43:03;;;;;;;10.10;5.30;;;;;;;5.17;96.72;95698.03;4992521;28;20255;-77
2022/12/04 04:45:43;;;;;;;10.45;5.10;;;;;;;5.35;96.41;95687.50;4990185;28;20468;-76
2022/12/04 04:48:22;;;;;;;8.13;4.85;;;;;;;5.36;97.17;95701.38;4992254;28;20415;-76
2022/12/04 04:50:49;;;;;;;7.32;4.50;;;;;;;5.29;97.33;95685.50;4990090;28;20412;-76
2022/12/04 04:53:23;;;;;;;7.75;4.40;;;;;;;5.40;96.52;95673.97;4974405;28;20431;-77
2022/12/04 04:55:48;;;;;;;9.35;5.15;;;;;;;5.29;95.58;95667.25;4991282;28;20498;-76
2022/12/04 04:58:16;;;;;;;12.25;6.85;;;;;;;5.41;94.73;95702.53;4992005;28;20446;-76
2022/12/04 05:01:00;;;;;;;15.82;9.20;;;;;;;5.00;94.96;95693.72;4990606;28;20412;-79
2022/12/04 05:03:26;;;;;;;13.57;8.02;;;;;;;5.14;95.34;95721.81;4992472;28;20466;-78
2022/12/04 05:05:51;;;;;;;13.57;7.20;;;;;;;4.82;95.22;95670.31;4992724;28;20176;-80
2022/12/04 05:08:17;;;;;;;17.63;8.00;;;;;;;5.13;94.81;95720.19;4992129;28;20443;-78
2022/12/04 05:10:42;;;;;;;14.13;7.13;;;;;;;5.15;95.04;95717.44;4992413;28;20181;-78
2022/12/04 05:13:10;;;;;;;15.37;8.03;;;;;;;5.03;94.73;95705.63;4992602;28;20667;-77
2022/12/04 05:15:36;;;;;;;15.00;8.70;;;;;;;4.78;95.03;95666.38;4990740;28;20424;-77
2022/12/04 05:18:01;;;;;;;10.47;6.80;;;;;;;5.09;94.86;95712.84;4992461;28;20201;-77
2022/12/04 05:20:27;;;;;;;11.83;7.23;;;;;;;5.11;95.42;95719.53;4992498;28;20180;-76
2022/12/04 05:22:52;;;;;;;11.40;7.30;;;;;;;4.89;95.51;95692.19;4974865;28;20180;-77
2022/12/04 05:25:18;;;;;;;12.60;7.40;;;;;;;4.94;95.97;95725.63;4991042;28;20922;-77
2022/12/04 05:27:43;;;;;;;14.38;7.82;;;;;;;5.10;97.10;95737.97;4990646;28;20514;-77
2022/12/04 05:30:09;;;;;;;20.33;10.93;;;;;;;5.04;96.27;95742.00;4992080;28;20181;-77
2022/12/04 05:32:35;;;;;;;11.57;7.40;;;;;;;5.14;95.96;95728.84;4991379;28;20173;-74
2022/12/04 05:35:00;;;;;;;26.37;11.67;;;;;;;5.17;96.17;95733.75;4991552;28;20177;-76
2022/12/04 05:37:26;;;;;;;29.17;13.63;;;;;;;5.01;95.58;95711.00;4990889;28;20664;-76
2022/12/04 05:39:51;;;;;;;14.83;9.07;;;;;;;5.15;95.88;95720.03;4991006;28;20566;-76
2022/12/04 05:42:17;;;;;;;22.93;11.57;;;;;;;5.12;95.83;95720.34;4991794;28;20551;-77
2022/12/04 05:44:42;;;;;;;27.77;15.67;;;;;;;5.03;94.32;95724.69;4991623;28;20444;-77
2022/12/04 05:47:07;;;;;;;25.77;13.00;;;;;;;5.05;93.67;95727.16;4991326;28;20165;-75
2022/12/04 05:49:34;;;;;;;24.73;11.60;;;;;;;4.85;93.38;95700.47;4991286;28;20181;-77
2022/12/04 05:52:01;;;;;;;27.03;13.53;;;;;;;4.85;93.37;95722.16;4984980;28;20191;-77
2022/12/04 05:54:26;;;;;;;25.77;12.77;;;;;;;4.96;93.15;95744.56;4989474;28;20256;-77
2022/12/04 05:56:52;;;;;;;30.30;12.43;;;;;;;4.87;93.82;95743.69;4983838;28;20554;-76
2022/12/04 05:59:17;;;;;;;24.33;12.13;;;;;;;4.81;94.48;95743.50;4989364;28;20268;-75
2022/12/04 06:01:43;;;;;;;24.17;12.67;;;;;;;4.80;94.34;95740.06;4990386;28;20185;-76
2022/12/04 06:04:10;;;;;;;20.70;11.00;;;;;;;4.78;94.56;95741.19;4987282;28;20185;-75
2022/12/04 06:06:36;;;;;;;18.60;10.27;;;;;;;4.76;94.62;95743.94;4991656;28;20177;-75
2022/12/04 06:09:01;;;;;;;10.57;6.63;;;;;;;4.86;95.37;95747.28;4990926;28;20217;-74
2022/12/04 06:11:30;;;;;;;17.60;8.20;;;;;;;4.92;95.67;95741.47;4991181;28;20328;-75
2022/12/04 06:13:56;;;;;;;11.43;6.87;;;;;;;4.93;95.42;95747.47;4990660;28;20169;-74
2022/12/04 06:16:28;;;;;;;18.83;8.43;;;;;;;5.00;95.61;95752.91;4989876;28;20298;-75
2022/12/04 06:19:00;;;;;;;21.67;12.43;;;;;;;4.98;94.80;95747.84;4991118;28;20192;-75
2022/12/04 06:21:28;;;;;;;18.50;9.57;;;;;;;4.88;94.37;95726.25;4991206;28;20177;-74
2022/12/04 06:23:54;;;;;;;20.13;9.87;;;;;;;5.09;94.77;95754.59;4990674;28;20181;-75
2022/12/04 06:26:20;;;;;;;22.00;11.40;;;;;;;5.06;95.27;95749.69;4989479;28;20170;-75
2022/12/04 06:28:46;;;;;;;26.23;13.83;;;;;;;4.99;94.81;95733.00;4991204;28;20176;-75
2022/12/04 06:31:14;;;;;;;48.73;31.13;;;;;;;5.08;95.02;95743.34;4990244;28;20186;-75
2022/12/04 06:33:40;;;;;;;75.37;42.97;;;;;;;5.09;95.01;95744.16;5005567;28;20722;-75
2022/12/04 06:36:09;;;;;;;78.67;48.03;;;;;;;5.17;95.14;95757.25;4990424;28;20263;-75
2022/12/04 06:38:35;;;;;;;74.70;47.07;;;;;;;5.24;94.85;95753.03;4990992;28;20180;-75
2022/12/04 06:41:06;;;;;;;84.87;50.67;;;;;;;5.44;94.75;95764.88;4990175;28;20185;-75
2022/12/04 06:43:32;;;;;;;63.50;39.87;;;;;;;5.62;94.12;95757.75;4988352;28;20259;-75
2022/12/04 06:46:01;;;;;;;56.83;38.10;;;;;;;5.67;93.38;95762.53;4993986;28;20663;-75
2022/12/04 06:48:28;;;;;;;55.23;33.70;;;;;;;5.71;93.40;95755.97;4993832;28;20209;-76
2022/12/04 06:50:58;;;;;;;49.13;30.87;;;;;;;5.95;93.74;95774.41;4976966;28;20624;-76
2022/12/04 06:53:25;;;;;;;40.73;22.37;;;;;;;6.03;92.90;95758.75;4994501;28;20185;-76
2022/12/04 06:55:51;;;;;;;33.00;19.80;;;;;;;6.22;93.07;95760.25;4994826;28;20720;-76
2022/12/04 06:58:16;;;;;;;22.90;13.27;;;;;;;6.03;93.23;95713.50;4994630;28;20204;-76
2022/12/04 07:00:42;;;;;;;12.53;6.10;;;;;;;6.54;92.84;95758.63;4994307;28;20184;-76
2022/12/04 07:03:07;;;;;;;9.17;5.57;;;;;;;6.77;92.95;95738.66;4976784;28;20208;-76
2022/12/04 07:05:32;;;;;;;6.30;4.50;;;;;;;7.35;91.09;95769.00;4976929;28;20184;-76
2022/12/04 07:07:58;;;;;;;9.00;4.10;;;;;;;7.91;89.04;95762.69;4994647;28;20319;-76
2022/12/04 07:10:23;;;;;;;6.80;3.90;;;;;;;8.52;85.68;95761.03;4994104;28;20272;-75
2022/12/04 07:12:49;;;;;;;6.03;3.73;;;;;;;8.63;83.72;95771.13;4994316;28;20247;-75
2022/12/04 07:15:14;;;;;;;6.47;3.80;;;;;;;8.69;83.56;95762.53;4994200;28;20176;-75
2022/12/04 07:17:39;;;;;;;5.97;3.77;;;;;;;8.61;82.31;95739.00;4994402;28;20283;-76
2022/12/04 07:20:05;;;;;;;5.47;3.60;;;;;;;9.01;81.35;95772.75;4994092;28;20177;-76
2022/12/04 07:22:31;;;;;;;9.23;4.07;;;;;;;9.54;80.08;95784.03;4994234;28;20320;-75
2022/12/04 07:24:56;;;;;;;6.07;3.80;;;;;;;10.49;76.04;95782.19;4993951;28;20208;-74
2022/12/04 07:27:21;;;;;;;5.40;3.60;;;;;;;10.98;73.60;95782.22;4994120;28;20181;-75
2022/12/04 07:29:47;;;;;;;6.43;3.70;;;;;;;11.78;71.44;95796.00;4993878;28;20188;-76
2022/12/04 07:32:12;;;;;;;5.67;3.93;;;;;;;12.25;69.21;95801.31;4993135;28;20912;-74
2022/12/04 07:34:38;;;;;;;5.23;3.50;;;;;;;12.66;67.38;95798.56;4992253;28;20750;-75
2022/12/04 07:37:03;;;;;;;6.13;3.40;;;;;;;12.04;68.67;95782.94;4992691;28;20256;-75
2022/12/04 07:39:28;;;;;;;5.87;3.67;;;;;;;11.54;69.97;95781.44;4992852;28;20625;-75
2022/12/04 07:41:54;;;;;;;5.33;3.77;;;;;;;10.48;72.71;95796.34;4991335;28;20242;-75
2022/12/04 07:44:19;;;;;;;6.03;4.00;;;;;;;9.69;76.05;95786.66;4992070;28;20192;-75
2022/12/04 07:46:45;;;;;;;6.97;4.10;;;;;;;9.06;78.90;95790.63;4991276;28;20181;-75
2022/12/04 07:49:11;;;;;;;8.10;3.73;;;;;;;8.78;80.31;95792.16;4992793;28;20192;-75
2022/12/04 07:51:37;;;;;;;6.10;4.13;;;;;;;8.76;80.77;95781.00;4975347;28;20181;-75
2022/12/04 07:54:02;;;;;;;7.77;4.43;;;;;;;8.56;80.95;95768.38;4992520;28;20590;-75
2022/12/04 07:56:28;;;;;;;7.70;4.23;;;;;;;8.50;82.04;95778.75;4991892;28;20303;-75
2022/12/04 07:58:53;;;;;;;7.03;4.73;;;;;;;8.43;82.63;95776.03;4991401;28;20578;-75
2022/12/04 08:01:21;;;;;;;7.33;3.80;;;;;;;8.48;82.52;95776.31;4992632;28;20256;-75
2022/12/04 08:03:48;;;;;;;8.83;4.00;;;;;;;8.34;82.48;95750.81;4992252;28;20181;-75
2022/12/04 08:06:17;;;;;;;6.33;3.87;;;;;;;8.20;82.92;95775.16;4992602;28;20645;-75
2022/12/04 08:08:43;;;;;;;6.37;3.40;;;;;;;7.84;83.76;95780.91;4992196;28;20294;-75
2022/12/04 08:11:10;;;;;;;5.80;3.70;;;;;;;7.86;84.61;95786.81;4992429;28;20259;-74
2022/12/04 08:13:36;;;;;;;8.63;4.03;;;;;;;7.94;84.90;95778.91;4992297;28;20180;-75
2022/12/04 08:16:06;;;;;;;6.97;3.97;;;;;;;8.02;84.78;95777.22;4992139;28;20169;-75
2022/12/04 08:18:33;;;;;;;6.10;3.97;;;;;;;8.15;84.58;95774.84;4974907;28;20560;-75
2022/12/04 08:21:10;;;;;;;6.83;3.40;;;;;;;8.11;83.53;95769.16;4990894;28;20188;-75
2022/12/04 08:23:38;;;;;;;5.47;3.73;;;;;;;8.07;84.25;95762.59;4991959;28;20173;-75
2022/12/04 08:26:05;;;;;;;5.33;3.57;;;;;;;8.07;84.33;95753.91;4991854;28;20177;-75
2022/12/04 08:28:31;;;;;;;5.10;3.33;;;;;;;8.16;84.13;95779.09;4991758;28;20683;-75
2022/12/04 08:31:09;;;;;;;5.13;3.30;;;;;;;8.18;84.01;95779.75;4991904;28;20192;-75
2022/12/04 08:33:37;;;;;;;4.70;3.13;;;;;;;8.24;83.14;95784.31;4991922;28;20181;-75
2022/12/04 08:36:07;;;;;;;5.90;3.83;;;;;;;8.20;83.36;95801.38;4991692;28;20165;-75
2022/12/04 08:38:35;;;;;;;4.87;3.33;;;;;;;8.08;83.96;95771.28;4991511;28;20193;-75
2022/12/04 08:41:02;;;;;;;5.27;3.37;;;;;;;8.16;83.18;95776.47;4991814;28;20546;-75
2022/12/04 08:43:28;;;;;;;3.17;2.60;;;;;;;8.10;83.32;95777.19;4990671;28;20192;-75
2022/12/04 08:45:58;;;;;;;5.67;3.23;;;;;;;8.11;83.27;95778.81;4991791;28;20599;-75
2022/12/04 08:48:23;;;;;;;6.30;3.67;;;;;;;8.20;82.88;95768.13;4974434;28;20200;-75
2022/12/04 08:50:50;;;;;;;6.17;3.17;;;;;;;8.25;82.72;95772.81;4991704;28;20188;-75
2022/12/04 08:53:16;;;;;;;3.40;2.70;;;;;;;8.32;82.02;95779.03;4991465;28;20181;-75
2022/12/04 08:55:43;;;;;;;4.33;2.80;;;;;;;8.19;82.08;95779.59;4991551;28;20268;-75
2022/12/04 08:58:08;;;;;;;8.07;3.03;;;;;;;7.99;82.83;95762.66;4991365;28;20207;-75
2022/12/04 09:00:34;;;;;;;5.10;3.83;;;;;;;8.12;82.74;95768.16;4991362;28;20648;-75
2022/12/04 09:02:59;;;;;;;5.57;3.20;;;;;;;8.20;82.99;95764.66;4991078;28;20181;-75
2022/12/04 09:05:24;;;;;;;6.50;4.13;;;;;;;8.19;83.10;95752.53;4991270;28;20180;-75
2022/12/04 09:07:50;;;;;;;5.23;3.40;;;;;;;8.40;82.22;95750.13;4972849;28;20173;-75
2022/12/04 09:10:15;;;;;;;5.33;3.13;;;;;;;8.25;82.25;95754.47;4991253;28;20633;-75
2022/12/04 09:12:41;;;;;;;5.67;3.70;;;;;;;8.09;82.87;95747.53;4991151;28;20213;-75
2022/12/04 09:15:07;;;;;;;5.57;3.40;;;;;;;7.96;82.91;95713.16;4991326;28;20179;-75
2022/12/04 09:17:35;;;;;;;6.73;3.93;;;;;;;8.19;83.04;95752.53;4990962;28;20243;-75
2022/12/04 09:20:00;;;;;;;6.73;3.77;;;;;;;8.28;83.10;95762.00;4991036;28;20196;-75
2022/12/04 09:22:26;;;;;;;6.63;3.47;;;;;;;8.06;82.77;95702.47;4990932;28;20223;-75
2022/12/04 09:24:51;;;;;;;6.80;3.67;;;;;;;8.51;82.68;95741.03;4990972;28;20260;-76
2022/12/04 09:27:16;;;;;;;6.00;3.87;;;;;;;8.65;81.71;95717.44;4990973;28;20184;-75
2022/12/04 09:29:42;;;;;;;4.80;3.30;;;;;;;8.61;80.97;95718.00;4990973;28;20181;-75
2022/12/04 09:32:07;;;;;;;5.77;3.57;;;;;;;8.47;81.64;95708.28;4991095;28;20205;-75
2022/12/04 09:34:33;;;;;;;7.00;4.03;;;;;;;8.53;82.14;95724.13;4990932;28;20177;-75
2022/12/04 09:36:58;;;;;;;5.83;3.53;;;;;;;8.42;82.73;95716.66;4990798;28;20200;-76
2022/12/04 09:39:23;;;;;;;4.93;3.53;;;;;;;8.41;82.96;95735.19;4990744;28;20195;-75
2022/12/04 09:42:02;;;;;;;6.70;3.90;;;;;;;8.30;82.94;95695.22;4990960;28;20188;-76
2022/12/04 09:44:32;;;;;;;6.30;3.90;;;;;;;8.41;83.44;95711.59;4990760;28;20173;-75
2022/12/04 09:47:18;;;;;;;8.00;4.00;;;;;;;8.26;83.21;95677.41;4989544;28;20177;-75
2022/12/04 09:49:49;;;;;;;5.73;4.00;;;;;;;8.35;83.37;95686.06;4989747;28;20176;-76
2022/12/04 09:52:36;;;;;;;5.60;3.77;;;;;;;8.33;83.72;95704.59;4990754;28;20205;-75
2022/12/04 09:55:04;;;;;;;5.80;3.80;;;;;;;8.18;83.91;95680.09;4990758;28;20183;-75
2022/12/04 09:57:42;;;;;;;5.50;3.93;;;;;;;8.08;83.74;95661.16;4990605;28;20762;-76
2022/12/04 10:00:13;;;;;;;5.87;4.10;;;;;;;8.42;83.67;95694.84;4990552;28;20280;-75
2022/12/04 10:02:41;;;;;;;5.33;3.43;;;;;;;8.36;83.74;95687.69;4990621;28;20180;-75
2022/12/04 10:05:22;;;;;;;6.40;3.20;;;;;;;8.32;83.96;95671.47;4989403;28;20177;-75
2022/12/04 10:07:53;;;;;;;5.07;3.90;;;;;;;8.37;83.62;95677.03;4990783;28;20169;-74
2022/12/04 10:10:24;;;;;;;5.43;3.50;;;;;;;8.28;83.93;95683.31;4990590;28;20192;-75
2022/12/04 10:13:11;;;;;;;6.53;3.93;;;;;;;8.30;83.78;95665.59;4990831;28;20181;-74
2022/12/04 10:15:47;;;;;;;8.40;3.70;;;;;;;8.29;83.58;95659.53;4989675;28;20178;-76
2022/12/04 10:18:32;;;;;;;6.43;3.73;;;;;;;8.18;84.47;95653.88;4987043;28;20219;-76
2022/12/04 10:21:16;;;;;;;6.30;3.60;;;;;;;8.05;84.67;95664.13;4991545;28;20688;-75
2022/12/04 10:23:47;;;;;;;5.77;3.73;;;;;;;7.95;84.84;95664.38;4991897;28;20319;-75
2022/12/04 10:26:15;;;;;;;6.07;4.27;;;;;;;7.80;85.49;95651.19;4992032;28;20559;-75
2022/12/04 10:28:47;;;;;;;8.10;4.90;;;;;;;7.94;85.56;95633.91;4987589;28;20186;-75
2022/12/04 10:31:14;;;;;;;6.77;4.57;;;;;;;8.15;84.51;95635.84;4993583;28;20177;-75
2022/12/04 10:33:52;;;;;;;7.67;4.30;;;;;;;8.29;84.07;95661.34;4996358;28;20256;-75
2022/12/04 10:36:20;;;;;;;6.17;3.40;;;;;;;8.24;83.89;95640.88;4993738;28;20231;-75
2022/12/04 10:38:54;;;;;;;6.37;4.13;;;;;;;8.01;84.10;95629.59;4993262;28;20184;-75
2022/12/04 10:41:52;;;;;;;8.17;4.83;;;;;;;8.23;84.38;95638.41;4992524;28;20165;-75
2022/12/04 10:44:19;;;;;;;5.73;3.80;;;;;;;8.02;83.75;95625.16;4971829;28;20599;-74
2022/12/04 10:46:45;;;;;;;6.47;4.27;;;;;;;7.77;84.34;95591.28;4993228;28;21042;-77
2022/12/04 10:49:17;;;;;;;6.20;4.30;;;;;;;7.89;84.56;95602.16;4993778;28;20211;-76
2022/12/04 10:51:44;;;;;;;7.40;3.90;;;;;;;8.15;84.12;95625.38;4993120;28;20176;-77
2022/12/04 10:54:22;;;;;;;9.30;4.20;;;;;;;8.13;84.03;95632.63;4992238;28;20200;-77
2022/12/04 10:56:56;;;;;;;7.43;4.53;;;;;;;8.19;83.95;95635.34;4994619;28;20204;-78
2022/12/04 10:59:22;;;;;;;6.40;4.23;;;;;;;8.15;83.74;95631.44;4993656;28;20247;-77
2022/12/04 11:01:48;;;;;;;6.40;4.27;;;;;;;8.15;84.10;95622.75;4994507;28;20177;-77
2022/12/04 11:04:27;;;;;;;7.50;4.83;;;;;;;8.12;83.62;95631.81;4994129;28;20683;-77
2022/12/04 11:07:13;;;;;;;6.60;4.50;;;;;;;8.12;83.69;95623.94;4994068;28;20227;-77
2022/12/04 11:09:40;;;;;;;9.00;4.47;;;;;;;8.11;84.15;95626.72;4992516;28;20304;-78
2022/12/04 11:12:08;;;;;;;6.63;4.47;;;;;;;8.23;83.95;95627.94;4993608;28;20666;-78
2022/12/04 11:14:34;;;;;;;7.57;4.57;;;;;;;8.36;83.38;95622.94;4990246;28;20681;-78
2022/12/04 11:17:05;;;;;;;8.20;4.10;;;;;;;8.16;83.23;95595.53;4994127;28;20280;-78
2022/12/04 11:19:35;;;;;;;7.30;4.07;;;;;;;8.20;83.31;95604.69;4994359;28;20181;-78
2022/12/04 11:22:16;;;;;;;6.80;4.00;;;;;;;8.40;82.82;95612.88;4993959;28;20173;-77
2022/12/04 11:24:48;;;;;;;7.93;4.43;;;;;;;8.42;83.00;95614.34;4976623;28;20173;-76
2022/12/04 11:27:45;;;;;;;5.53;3.70;;;;;;;8.18;83.75;95611.91;4992649;28;20181;-76
2022/12/04 11:30:17;;;;;;;6.00;3.67;;;;;;;8.19;83.16;95601.25;4964438;28;20189;-76
2022/12/04 11:32:44;;;;;;;5.60;3.77;;;;;;;8.42;82.89;95616.97;4992364;28;20177;-76
2022/12/04 11:35:25;;;;;;;5.93;3.63;;;;;;;8.47;82.21;95619.88;4993188;28;20638;-76
2022/12/04 11:37:53;;;;;;;11.43;3.80;;;;;;;8.42;81.15;95590.72;4991715;28;20200;-78
2022/12/04 11:40:20;;;;;;;6.87;3.13;;;;;;;8.51;79.37;95609.84;4990988;28;20568;-75
2022/12/04 11:42:59;;;;;;;5.43;3.77;;;;;;;8.37;80.20;95636.88;4992015;28;20735;-79
2022/12/04 11:45:25;;;;;;;5.10;3.13;;;;;;;8.36;80.16;95624.75;4975847;28;20181;-76
2022/12/04 11:47:56;;;;;;;5.40;3.30;;;;;;;8.30;79.97;95623.63;4991841;28;20173;-76
2022/12/04 11:50:36;;;;;;;5.63;3.20;;;;;;;8.31;79.84;95630.50;4993233;28;20180;-76
2022/12/04 11:53:13;;;;;;;4.20;2.77;;;;;;;8.27;80.35;95621.34;4991654;28;20679;-76
2022/12/04 11:56:00;;;;;;;4.00;2.60;;;;;;;8.22;80.01;95631.53;4992725;28;20263;-76
2022/12/04 11:58:48;;;;;;;6.40;3.23;;;;;;;8.25;80.14;95632.00;4993248;28;20258;-76
2022/12/04 12:01:17;;;;;;;4.20;3.00;;;;;;;8.22;81.16;95626.28;4992117;28;20192;-76